Bly, OR (97622)

2:10 AM PDT on October 20, 2014 (GMT -0700)
Ferguson Mountain | Change Station
CLOSE
Current Station
Personal Weather Station
Location: Beatty, OR
Elevation: 4843 ft
Nearby Weather Stations

Elev 4843 ft 42.48 °N, 121.21 °W | Updated 35 seconds ago

Clear
Clear
49.6 °F
Feels Like 47 °F
N
6.0
Wind Variable Wind from SSE
Gusts 10.0 mph

Today
High -- | Low -- °F
--% Chance of Precip.
Yesterday
High -- | Low -- °F
Precip. -- in
7:23 AM 6:14 PM
Waning Crescent, 12% visible
Pressure 29.78 in
Visibility 10.0 miles
Clouds Clear
Windchill 47 °F
Dew Point 26 °F
Humidity 39%
Rainfall 0.00 in
Snow Depth Not available.
UV 0 out of 12
Pollen 3.20 out of 12
Air Quality Not available.
Flu Activity Sporadic
METAR KLMT 200853Z AUTO 15009KT 10SM CLR 10/06 A2987 RMK AO2 SLP084 T01000056 58006

More Conditions Fewer Conditions

Pressure 29.78 in
Visibility 10.0 miles
Clouds Clear
Windchill 47 °F
Dew Point 26 °F
Humidity 39%
Rainfall 0.00 in
Snow Depth Not available.
UV 0 out of 12
Pollen 3.20 out of 12
Air Quality Not available.
Flu Activity Sporadic
METAR KLMT 200853Z AUTO 15009KT 10SM CLR 10/06 A2987 RMK AO2 SLP084 T01000056 58006

More Conditions Fewer Conditions

10-Day Weather Forecast

Almanac

Astronomy

Oct. 20, 2014 Rise Set
Actual Time 7:23 AM PDT 6:14 PM PDT
Civil Twilight 6:55 AM PDT 6:43 PM PDT
Nautical Twilight 6:22 AM PDT 7:15 PM PDT
Astronomical Twilight 5:49 AM PDT 7:48 PM PDT
Moon 4:13 AM PDT 4:43 PM PDT
Length of Visible Light 11h 48m
Length of Day
10h 51m
Waning Crescent, 12% of the Moon is Illuminated
Today
Waning Crescent
Oct 23
New
Oct 30
First Quarter
Nov 6
Full
Nov 14
Last Quarter

Today's Extremes

State Highs State Lows

Community

WunderPhotos

Upload Photos

1,763,316 photos uploaded!

Nearby

Snow Depth

Station Depth Elevation
Gerber Reservoir 0 in 4850 ft
Taylor Butte 0 in 5100 ft
Quartz Mountain 0 in 5700 ft
Summer Rim 1 in 7100 ft
Silver Creek 0 in 5720 ft

Earthquake Activity

City Distance Mag. Time & Date
No recent earthquake activity has been reported nearby.
Minimum magnitude displayed is 2.5.

Coastal Water Temperatures

Place Temperature
No Stations Reporting

Nearby Weather Stations